Terminal Aerodrome Forecast
Issued by NWS Duluth, MN

Home | Current Version | Previous Version | Text Only | Print | Product List | Glossary On
Versions: 1 2 3 4 5 6 7 8 9 10 11 12 13 14 15 16
699
FTUS43 KDLH 100540
TAFDLH
TAF
KDLH 100540Z 1006/1106 35008KT P6SM SCT015
      TEMPO 1006/1010 BKN015
     FM101000 35008KT P6SM SKC
     FM101700 36008KT P6SM SCT025=

USA.gov is the U.S. government's official web portal to all federal, state and local government web resources and services.